sensor_id;sensor_type;location;lat;lon;timestamp;P1;durP1;ratioP1;P2;durP2;ratioP2
7191;SDS011;3637;51.494;11.958;2023-03-26T00:02:01;0.97;;;0.90;;
7191;SDS011;3637;51.494;11.958;2023-03-26T00:05:04;0.90;;;0.90;;
7191;SDS011;3637;51.494;11.958;2023-03-26T00:08:08;0.83;;;0.83;;
7191;SDS011;3637;51.494;11.958;2023-03-26T00:11:11;1.03;;;1.03;;
7191;SDS011;3637;51.494;11.958;2023-03-26T00:14:15;1.20;;;1.10;;
7191;SDS011;3637;51.494;11.958;2023-03-26T00:17:17;1.07;;;0.97;;
7191;SDS011;3637;51.494;11.958;2023-03-26T00:20:20;1.00;;;1.00;;
7191;SDS011;3637;51.494;11.958;2023-03-26T00:23:23;1.37;;;0.93;;
7191;SDS011;3637;51.494;11.958;2023-03-26T00:26:26;0.93;;;0.93;;
7191;SDS011;3637;51.494;11.958;2023-03-26T00:29:28;1.20;;;1.10;;
7191;SDS011;3637;51.494;11.958;2023-03-26T00:32:32;1.00;;;1.00;;
7191;SDS011;3637;51.494;11.958;2023-03-26T00:35:34;1.03;;;1.03;;
7191;SDS011;3637;51.494;11.958;2023-03-26T00:38:38;0.90;;;0.90;;
7191;SDS011;3637;51.494;11.958;2023-03-26T00:41:40;1.00;;;1.00;;
7191;SDS011;3637;51.494;11.958;2023-03-26T00:44:42;1.00;;;1.00;;
7191;SDS011;3637;51.494;11.958;2023-03-26T00:47:44;1.00;;;1.00;;
7191;SDS011;3637;51.494;11.958;2023-03-26T00:50:46;1.10;;;1.10;;
7191;SDS011;3637;51.494;11.958;2023-03-26T00:53:50;1.23;;;1.00;;
7191;SDS011;3637;51.494;11.958;2023-03-26T00:56:53;1.00;;;1.00;;
7191;SDS011;3637;51.494;11.958;2023-03-26T00:59:55;1.73;;;1.20;;
7191;SDS011;3637;51.494;11.958;2023-03-26T01:03:09;1.10;;;1.10;;
7191;SDS011;3637;51.494;11.958;2023-03-26T01:06:16;2.50;;;1.00;;
7191;SDS011;3637;51.494;11.958;2023-03-26T01:09:24;1.10;;;1.10;;
7191;SDS011;3637;51.494;11.958;2023-03-26T01:12:32;1.43;;;0.87;;
7191;SDS011;3637;51.494;11.958;2023-03-26T01:15:34;1.17;;;1.13;;
7191;SDS011;3637;51.494;11.958;2023-03-26T01:18:38;1.37;;;1.20;;
7191;SDS011;3637;51.494;11.958;2023-03-26T01:21:41;1.77;;;1.10;;
7191;SDS011;3637;51.494;11.958;2023-03-26T01:24:44;1.10;;;1.10;;
7191;SDS011;3637;51.494;11.958;2023-03-26T01:27:52;1.80;;;1.13;;
7191;SDS011;3637;51.494;11.958;2023-03-26T01:30:56;0.93;;;0.93;;
7191;SDS011;3637;51.494;11.958;2023-03-26T01:34:06;1.30;;;1.30;;
7191;SDS011;3637;51.494;11.958;2023-03-26T01:37:14;1.20;;;1.20;;
7191;SDS011;3637;51.494;11.958;2023-03-26T01:40:23;1.20;;;1.10;;
7191;SDS011;3637;51.494;11.958;2023-03-26T01:43:30;1.90;;;1.00;;
7191;SDS011;3637;51.494;11.958;2023-03-26T01:46:35;1.00;;;1.00;;
7191;SDS011;3637;51.494;11.958;2023-03-26T01:49:38;0.93;;;0.93;;
7191;SDS011;3637;51.494;11.958;2023-03-26T01:52:39;1.30;;;1.20;;
7191;SDS011;3637;51.494;11.958;2023-03-26T01:55:45;1.70;;;1.13;;
7191;SDS011;3637;51.494;11.958;2023-03-26T01:58:59;1.20;;;1.20;;
7191;SDS011;3637;51.494;11.958;2023-03-26T02:02:24;1.30;;;1.20;;
7191;SDS011;3637;51.494;11.958;2023-03-26T02:05:31;1.60;;;1.50;;
7191;SDS011;3637;51.494;11.958;2023-03-26T02:08:37;1.10;;;1.10;;
7191;SDS011;3637;51.494;11.958;2023-03-26T02:11:43;1.10;;;1.10;;
7191;SDS011;3637;51.494;11.958;2023-03-26T02:14:46;1.40;;;1.30;;
7191;SDS011;3637;51.494;11.958;2023-03-26T02:17:50;1.27;;;1.20;;
7191;SDS011;3637;51.494;11.958;2023-03-26T02:20:52;2.13;;;1.30;;
7191;SDS011;3637;51.494;11.958;2023-03-26T02:23:55;1.50;;;1.40;;
7191;SDS011;3637;51.494;11.958;2023-03-26T02:27:03;1.57;;;1.47;;
7191;SDS011;3637;51.494;11.958;2023-03-26T02:30:08;1.33;;;1.30;;
7191;SDS011;3637;51.494;11.958;2023-03-26T02:33:12;1.30;;;1.20;;
7191;SDS011;3637;51.494;11.958;2023-03-26T02:36:16;1.50;;;1.40;;
7191;SDS011;3637;51.494;11.958;2023-03-26T02:39:20;3.10;;;1.13;;
7191;SDS011;3637;51.494;11.958;2023-03-26T02:42:24;2.47;;;1.50;;
7191;SDS011;3637;51.494;11.958;2023-03-26T02:45:26;1.73;;;1.43;;
7191;SDS011;3637;51.494;11.958;2023-03-26T02:48:28;1.30;;;1.20;;
7191;SDS011;3637;51.494;11.958;2023-03-26T02:51:30;1.53;;;1.27;;
7191;SDS011;3637;51.494;11.958;2023-03-26T02:54:33;1.57;;;1.30;;
7191;SDS011;3637;51.494;11.958;2023-03-26T02:57:38;1.83;;;1.60;;
7191;SDS011;3637;51.494;11.958;2023-03-26T03:00:40;2.00;;;1.53;;
7191;SDS011;3637;51.494;11.958;2023-03-26T03:03:42;2.33;;;1.47;;
7191;SDS011;3637;51.494;11.958;2023-03-26T03:06:46;1.77;;;1.40;;
7191;SDS011;3637;51.494;11.958;2023-03-26T03:09:56;2.63;;;1.47;;
7191;SDS011;3637;51.494;11.958;2023-03-26T03:13:03;1.83;;;1.60;;
7191;SDS011;3637;51.494;11.958;2023-03-26T03:16:09;3.70;;;1.53;;
7191;SDS011;3637;51.494;11.958;2023-03-26T03:19:11;1.70;;;1.60;;
7191;SDS011;3637;51.494;11.958;2023-03-26T03:22:13;1.50;;;1.40;;
7191;SDS011;3637;51.494;11.958;2023-03-26T03:25:15;2.23;;;1.50;;
7191;SDS011;3637;51.494;11.958;2023-03-26T03:28:18;1.70;;;1.60;;
7191;SDS011;3637;51.494;11.958;2023-03-26T03:31:21;1.63;;;1.40;;
7191;SDS011;3637;51.494;11.958;2023-03-26T03:34:24;2.97;;;1.90;;
7191;SDS011;3637;51.494;11.958;2023-03-26T03:37:26;2.27;;;1.90;;
7191;SDS011;3637;51.494;11.958;2023-03-26T03:40:28;2.77;;;1.67;;
7191;SDS011;3637;51.494;11.958;2023-03-26T03:43:31;1.70;;;1.60;;
7191;SDS011;3637;51.494;11.958;2023-03-26T03:46:33;2.40;;;1.70;;
7191;SDS011;3637;51.494;11.958;2023-03-26T03:49:35;1.70;;;1.60;;
7191;SDS011;3637;51.494;11.958;2023-03-26T03:52:36;1.83;;;1.50;;
7191;SDS011;3637;51.494;11.958;2023-03-26T03:55:38;3.17;;;1.73;;
7191;SDS011;3637;51.494;11.958;2023-03-26T03:58:42;2.43;;;1.80;;
7191;SDS011;3637;51.494;11.958;2023-03-26T04:01:46;1.70;;;1.60;;
7191;SDS011;3637;51.494;11.958;2023-03-26T04:04:49;3.83;;;1.50;;
7191;SDS011;3637;51.494;11.958;2023-03-26T04:07:52;3.83;;;1.60;;
7191;SDS011;3637;51.494;11.958;2023-03-26T04:10:53;2.27;;;1.83;;
7191;SDS011;3637;51.494;11.958;2023-03-26T04:13:57;4.40;;;1.70;;
7191;SDS011;3637;51.494;11.958;2023-03-26T04:16:58;3.33;;;1.80;;
7191;SDS011;3637;51.494;11.958;2023-03-26T04:20:01;2.17;;;1.70;;
7191;SDS011;3637;51.494;11.958;2023-03-26T04:23:06;1.90;;;1.80;;
7191;SDS011;3637;51.494;11.958;2023-03-26T04:26:14;2.07;;;1.47;;
7191;SDS011;3637;51.494;11.958;2023-03-26T04:29:20;1.97;;;1.50;;
7191;SDS011;3637;51.494;11.958;2023-03-26T04:32:25;1.63;;;1.53;;
7191;SDS011;3637;51.494;11.958;2023-03-26T04:35:29;1.77;;;1.63;;
7191;SDS011;3637;51.494;11.958;2023-03-26T04:38:36;2.27;;;1.77;;
7191;SDS011;3637;51.494;11.958;2023-03-26T04:41:41;3.33;;;1.90;;
7191;SDS011;3637;51.494;11.958;2023-03-26T04:44:44;3.67;;;1.93;;
7191;SDS011;3637;51.494;11.958;2023-03-26T04:47:49;2.57;;;1.60;;
7191;SDS011;3637;51.494;11.958;2023-03-26T04:50:51;2.00;;;1.80;;
7191;SDS011;3637;51.494;11.958;2023-03-26T04:53:54;1.90;;;1.70;;
7191;SDS011;3637;51.494;11.958;2023-03-26T04:56:58;1.60;;;1.50;;
7191;SDS011;3637;51.494;11.958;2023-03-26T05:00:05;3.87;;;1.73;;
7191;SDS011;3637;51.494;11.958;2023-03-26T05:03:14;1.77;;;1.60;;
7191;SDS011;3637;51.494;11.958;2023-03-26T05:06:15;2.47;;;1.60;;
7191;SDS011;3637;51.494;11.958;2023-03-26T05:09:18;3.17;;;1.70;;
7191;SDS011;3637;51.494;11.958;2023-03-26T05:12:20;2.43;;;1.43;;
7191;SDS011;3637;51.494;11.958;2023-03-26T05:15:25;1.67;;;1.30;;
7191;SDS011;3637;51.494;11.958;2023-03-26T05:18:27;1.57;;;1.47;;
7191;SDS011;3637;51.494;11.958;2023-03-26T05:21:31;2.20;;;1.57;;
7191;SDS011;3637;51.494;11.958;2023-03-26T05:24:33;1.50;;;1.40;;
7191;SDS011;3637;51.494;11.958;2023-03-26T05:27:35;1.70;;;1.50;;
7191;SDS011;3637;51.494;11.958;2023-03-26T05:30:38;1.60;;;1.43;;
7191;SDS011;3637;51.494;11.958;2023-03-26T05:33:40;1.40;;;1.30;;
7191;SDS011;3637;51.494;11.958;2023-03-26T05:36:42;2.37;;;1.40;;
7191;SDS011;3637;51.494;11.958;2023-03-26T05:39:44;1.50;;;1.40;;
7191;SDS011;3637;51.494;11.958;2023-03-26T05:42:46;1.50;;;1.40;;
7191;SDS011;3637;51.494;11.958;2023-03-26T05:45:52;2.03;;;1.77;;
7191;SDS011;3637;51.494;11.958;2023-03-26T05:48:54;3.43;;;1.47;;
7191;SDS011;3637;51.494;11.958;2023-03-26T05:51:56;1.70;;;1.60;;
7191;SDS011;3637;51.494;11.958;2023-03-26T05:54:57;2.43;;;1.73;;
7191;SDS011;3637;51.494;11.958;2023-03-26T05:57:59;1.97;;;1.57;;
7191;SDS011;3637;51.494;11.958;2023-03-26T06:01:03;1.83;;;1.50;;
7191;SDS011;3637;51.494;11.958;2023-03-26T06:04:07;2.00;;;1.50;;
7191;SDS011;3637;51.494;11.958;2023-03-26T06:07:09;1.60;;;1.50;;
7191;SDS011;3637;51.494;11.958;2023-03-26T06:10:11;1.57;;;1.40;;
7191;SDS011;3637;51.494;11.958;2023-03-26T06:13:13;1.50;;;1.40;;
7191;SDS011;3637;51.494;11.958;2023-03-26T06:16:21;1.53;;;1.43;;
7191;SDS011;3637;51.494;11.958;2023-03-26T06:19:23;1.53;;;1.43;;
7191;SDS011;3637;51.494;11.958;2023-03-26T06:22:25;1.47;;;1.37;;
7191;SDS011;3637;51.494;11.958;2023-03-26T06:25:27;1.50;;;1.40;;
7191;SDS011;3637;51.494;11.958;2023-03-26T06:28:28;2.07;;;1.87;;
7191;SDS011;3637;51.494;11.958;2023-03-26T06:31:32;2.17;;;1.43;;
7191;SDS011;3637;51.494;11.958;2023-03-26T06:34:34;1.87;;;1.60;;
7191;SDS011;3637;51.494;11.958;2023-03-26T06:37:36;2.40;;;1.70;;
7191;SDS011;3637;51.494;11.958;2023-03-26T06:40:38;3.37;;;1.60;;
7191;SDS011;3637;51.494;11.958;2023-03-26T06:43:39;2.00;;;1.57;;
7191;SDS011;3637;51.494;11.958;2023-03-26T06:46:43;1.50;;;1.40;;
7191;SDS011;3637;51.494;11.958;2023-03-26T06:49:45;3.40;;;1.70;;
7191;SDS011;3637;51.494;11.958;2023-03-26T06:52:46;1.57;;;1.47;;
7191;SDS011;3637;51.494;11.958;2023-03-26T06:55:49;1.60;;;1.50;;
7191;SDS011;3637;51.494;11.958;2023-03-26T06:58:52;1.67;;;1.53;;
7191;SDS011;3637;51.494;11.958;2023-03-26T07:01:56;1.57;;;1.47;;
7191;SDS011;3637;51.494;11.958;2023-03-26T07:04:58;1.60;;;1.37;;
7191;SDS011;3637;51.494;11.958;2023-03-26T07:08:02;2.37;;;1.50;;
7191;SDS011;3637;51.494;11.958;2023-03-26T07:11:04;4.13;;;2.53;;
7191;SDS011;3637;51.494;11.958;2023-03-26T07:14:06;2.10;;;1.90;;
7191;SDS011;3637;51.494;11.958;2023-03-26T07:17:10;1.53;;;1.40;;
7191;SDS011;3637;51.494;11.958;2023-03-26T07:20:14;1.70;;;1.40;;
7191;SDS011;3637;51.494;11.958;2023-03-26T07:23:19;4.10;;;1.50;;
7191;SDS011;3637;51.494;11.958;2023-03-26T07:26:24;1.50;;;1.40;;
7191;SDS011;3637;51.494;11.958;2023-03-26T07:29:32;1.70;;;1.60;;
7191;SDS011;3637;51.494;11.958;2023-03-26T07:32:40;3.03;;;1.70;;
7191;SDS011;3637;51.494;11.958;2023-03-26T07:35:50;3.77;;;2.10;;
7191;SDS011;3637;51.494;11.958;2023-03-26T07:39:10;2.17;;;1.53;;
7191;SDS011;3637;51.494;11.958;2023-03-26T07:42:23;3.17;;;1.50;;
7191;SDS011;3637;51.494;11.958;2023-03-26T07:45:32;2.57;;;1.60;;
7191;SDS011;3637;51.494;11.958;2023-03-26T07:48:43;2.60;;;1.77;;
7191;SDS011;3637;51.494;11.958;2023-03-26T07:51:49;2.07;;;1.73;;
7191;SDS011;3637;51.494;11.958;2023-03-26T07:54:54;7.23;;;2.10;;
7191;SDS011;3637;51.494;11.958;2023-03-26T07:58:02;2.97;;;2.00;;
7191;SDS011;3637;51.494;11.958;2023-03-26T08:01:16;4.27;;;1.63;;
7191;SDS011;3637;51.494;11.958;2023-03-26T08:04:40;5.83;;;2.10;;
7191;SDS011;3637;51.494;11.958;2023-03-26T08:08:13;2.33;;;1.87;;
7191;SDS011;3637;51.494;11.958;2023-03-26T08:11:23;6.00;;;1.93;;
7191;SDS011;3637;51.494;11.958;2023-03-26T08:14:41;2.27;;;1.77;;
7191;SDS011;3637;51.494;11.958;2023-03-26T08:17:51;2.87;;;1.90;;
7191;SDS011;3637;51.494;11.958;2023-03-26T08:20:58;3.23;;;1.70;;
7191;SDS011;3637;51.494;11.958;2023-03-26T08:24:06;7.00;;;2.30;;
7191;SDS011;3637;51.494;11.958;2023-03-26T08:27:14;2.77;;;1.70;;
7191;SDS011;3637;51.494;11.958;2023-03-26T08:30:24;4.63;;;1.90;;
7191;SDS011;3637;51.494;11.958;2023-03-26T08:33:30;3.67;;;1.80;;
7191;SDS011;3637;51.494;11.958;2023-03-26T08:36:33;3.33;;;2.33;;
7191;SDS011;3637;51.494;11.958;2023-03-26T08:39:39;4.13;;;1.87;;
7191;SDS011;3637;51.494;11.958;2023-03-26T08:42:47;6.47;;;2.10;;
7191;SDS011;3637;51.494;11.958;2023-03-26T08:46:11;3.20;;;2.00;;
7191;SDS011;3637;51.494;11.958;2023-03-26T08:53:05;10.00;;;2.50;;
7191;SDS011;3637;51.494;11.958;2023-03-26T08:56:30;5.90;;;2.07;;
7191;SDS011;3637;51.494;11.958;2023-03-26T08:59:55;6.37;;;2.30;;
7191;SDS011;3637;51.494;11.958;2023-03-26T09:03:42;3.43;;;1.87;;
7191;SDS011;3637;51.494;11.958;2023-03-26T09:07:21;3.50;;;2.00;;
7191;SDS011;3637;51.494;11.958;2023-03-26T09:18:29;3.50;;;2.00;;
7191;SDS011;3637;51.494;11.958;2023-03-26T09:25:42;6.80;;;2.00;;
7191;SDS011;3637;51.494;11.958;2023-03-26T09:29:26;3.93;;;2.30;;
7191;SDS011;3637;51.494;11.958;2023-03-26T09:36:31;2.53;;;1.83;;
7191;SDS011;3637;51.494;11.958;2023-03-26T09:39:47;3.27;;;2.37;;
7191;SDS011;3637;51.494;11.958;2023-03-26T09:43:15;5.00;;;2.07;;
7191;SDS011;3637;51.494;11.958;2023-03-26T09:46:36;4.93;;;2.60;;
7191;SDS011;3637;51.494;11.958;2023-03-26T09:49:45;5.33;;;2.37;;
7191;SDS011;3637;51.494;11.958;2023-03-26T09:52:55;4.10;;;2.20;;
7191;SDS011;3637;51.494;11.958;2023-03-26T09:56:12;3.57;;;2.30;;
7191;SDS011;3637;51.494;11.958;2023-03-26T09:59:30;4.37;;;2.43;;
7191;SDS011;3637;51.494;11.958;2023-03-26T10:02:43;6.43;;;2.77;;
7191;SDS011;3637;51.494;11.958;2023-03-26T10:05:55;5.77;;;2.77;;
7191;SDS011;3637;51.494;11.958;2023-03-26T10:12:32;6.80;;;2.67;;
7191;SDS011;3637;51.494;11.958;2023-03-26T10:15:41;4.50;;;2.73;;
7191;SDS011;3637;51.494;11.958;2023-03-26T10:18:58;2.87;;;2.20;;
7191;SDS011;3637;51.494;11.958;2023-03-26T10:22:12;7.93;;;3.40;;
7191;SDS011;3637;51.494;11.958;2023-03-26T10:28:59;4.50;;;2.90;;
7191;SDS011;3637;51.494;11.958;2023-03-26T10:32:16;3.57;;;2.37;;
7191;SDS011;3637;51.494;11.958;2023-03-26T10:35:30;6.50;;;2.60;;
7191;SDS011;3637;51.494;11.958;2023-03-26T10:38:50;8.00;;;2.20;;
7191;SDS011;3637;51.494;11.958;2023-03-26T10:42:05;4.77;;;2.43;;
7191;SDS011;3637;51.494;11.958;2023-03-26T10:45:25;4.47;;;2.00;;
7191;SDS011;3637;51.494;11.958;2023-03-26T10:48:39;4.67;;;2.10;;
7191;SDS011;3637;51.494;11.958;2023-03-26T10:51:58;3.70;;;2.23;;
7191;SDS011;3637;51.494;11.958;2023-03-26T10:55:07;3.90;;;2.30;;
7191;SDS011;3637;51.494;11.958;2023-03-26T10:58:15;8.17;;;2.13;;
7191;SDS011;3637;51.494;11.958;2023-03-26T11:01:30;7.43;;;2.20;;
7191;SDS011;3637;51.494;11.958;2023-03-26T11:04:41;5.33;;;2.53;;
7191;SDS011;3637;51.494;11.958;2023-03-26T11:07:54;5.97;;;2.30;;
7191;SDS011;3637;51.494;11.958;2023-03-26T11:11:01;3.63;;;2.13;;
7191;SDS011;3637;51.494;11.958;2023-03-26T11:14:14;7.50;;;2.70;;
7191;SDS011;3637;51.494;11.958;2023-03-26T11:17:24;5.83;;;1.93;;
7191;SDS011;3637;51.494;11.958;2023-03-26T11:20:36;4.20;;;2.17;;
7191;SDS011;3637;51.494;11.958;2023-03-26T11:23:44;3.87;;;2.30;;
7191;SDS011;3637;51.494;11.958;2023-03-26T11:26:55;2.53;;;2.10;;
7191;SDS011;3637;51.494;11.958;2023-03-26T11:30:04;5.13;;;2.40;;
7191;SDS011;3637;51.494;11.958;2023-03-26T11:33:17;4.97;;;2.30;;
7191;SDS011;3637;51.494;11.958;2023-03-26T11:36:24;7.63;;;2.50;;
7191;SDS011;3637;51.494;11.958;2023-03-26T11:39:32;5.27;;;2.33;;
7191;SDS011;3637;51.494;11.958;2023-03-26T11:42:41;3.43;;;2.07;;
7191;SDS011;3637;51.494;11.958;2023-03-26T11:45:45;4.53;;;2.43;;
7191;SDS011;3637;51.494;11.958;2023-03-26T11:48:53;4.73;;;2.70;;
7191;SDS011;3637;51.494;11.958;2023-03-26T11:51:58;4.67;;;2.10;;
7191;SDS011;3637;51.494;11.958;2023-03-26T11:55:01;7.13;;;2.40;;
7191;SDS011;3637;51.494;11.958;2023-03-26T11:58:03;3.27;;;2.37;;
7191;SDS011;3637;51.494;11.958;2023-03-26T12:01:19;4.77;;;2.20;;
7191;SDS011;3637;51.494;11.958;2023-03-26T12:05:10;5.93;;;2.50;;
7191;SDS011;3637;51.494;11.958;2023-03-26T12:08:17;8.63;;;2.80;;
7191;SDS011;3637;51.494;11.958;2023-03-26T12:11:21;3.93;;;2.10;;
7191;SDS011;3637;51.494;11.958;2023-03-26T12:14:27;3.10;;;2.03;;
7191;SDS011;3637;51.494;11.958;2023-03-26T12:17:32;4.87;;;2.20;;
7191;SDS011;3637;51.494;11.958;2023-03-26T12:20:37;3.63;;;1.87;;
7191;SDS011;3637;51.494;11.958;2023-03-26T12:23:42;4.73;;;1.93;;
7191;SDS011;3637;51.494;11.958;2023-03-26T12:26:55;2.87;;;1.40;;
7191;SDS011;3637;51.494;11.958;2023-03-26T12:30:08;4.27;;;1.93;;
7191;SDS011;3637;51.494;11.958;2023-03-26T12:33:12;3.67;;;1.93;;
7191;SDS011;3637;51.494;11.958;2023-03-26T12:36:22;4.03;;;1.90;;
7191;SDS011;3637;51.494;11.958;2023-03-26T12:39:30;8.80;;;2.20;;
7191;SDS011;3637;51.494;11.958;2023-03-26T12:42:35;4.77;;;2.03;;
7191;SDS011;3637;51.494;11.958;2023-03-26T12:45:41;6.30;;;2.03;;
7191;SDS011;3637;51.494;11.958;2023-03-26T12:48:43;3.03;;;1.80;;
7191;SDS011;3637;51.494;11.958;2023-03-26T12:51:47;6.73;;;2.03;;
7191;SDS011;3637;51.494;11.958;2023-03-26T12:54:52;2.93;;;2.07;;
7191;SDS011;3637;51.494;11.958;2023-03-26T12:58:02;3.43;;;1.70;;
7191;SDS011;3637;51.494;11.958;2023-03-26T13:01:15;3.23;;;2.00;;
7191;SDS011;3637;51.494;11.958;2023-03-26T13:04:36;2.27;;;1.80;;
7191;SDS011;3637;51.494;11.958;2023-03-26T13:08:02;6.00;;;1.87;;
7191;SDS011;3637;51.494;11.958;2023-03-26T13:11:18;2.20;;;1.80;;
7191;SDS011;3637;51.494;11.958;2023-03-26T13:14:29;1.83;;;1.67;;
7191;SDS011;3637;51.494;11.958;2023-03-26T13:17:44;1.60;;;1.40;;
7191;SDS011;3637;51.494;11.958;2023-03-26T13:20:59;2.57;;;1.60;;
7191;SDS011;3637;51.494;11.958;2023-03-26T13:24:10;2.97;;;1.63;;
7191;SDS011;3637;51.494;11.958;2023-03-26T13:27:25;1.63;;;1.40;;
7191;SDS011;3637;51.494;11.958;2023-03-26T13:30:43;1.43;;;1.33;;
7191;SDS011;3637;51.494;11.958;2023-03-26T13:33:54;2.77;;;1.60;;
7191;SDS011;3637;51.494;11.958;2023-03-26T13:37:01;1.60;;;1.50;;
7191;SDS011;3637;51.494;11.958;2023-03-26T13:40:17;2.87;;;1.40;;
7191;SDS011;3637;51.494;11.958;2023-03-26T13:43:28;1.50;;;1.40;;
7191;SDS011;3637;51.494;11.958;2023-03-26T13:46:39;2.37;;;1.07;;
7191;SDS011;3637;51.494;11.958;2023-03-26T13:49:43;1.47;;;0.93;;
7191;SDS011;3637;51.494;11.958;2023-03-26T13:52:48;2.13;;;1.13;;
7191;SDS011;3637;51.494;11.958;2023-03-26T13:55:55;1.00;;;1.00;;
7191;SDS011;3637;51.494;11.958;2023-03-26T13:59:00;2.00;;;1.20;;
7191;SDS011;3637;51.494;11.958;2023-03-26T14:02:08;1.83;;;1.30;;
7191;SDS011;3637;51.494;11.958;2023-03-26T14:05:14;2.10;;;1.43;;
7191;SDS011;3637;51.494;11.958;2023-03-26T14:08:23;1.83;;;1.27;;
7191;SDS011;3637;51.494;11.958;2023-03-26T14:11:31;3.13;;;1.80;;
7191;SDS011;3637;51.494;11.958;2023-03-26T14:14:44;1.50;;;1.23;;
7191;SDS011;3637;51.494;11.958;2023-03-26T14:17:54;1.40;;;1.30;;
7191;SDS011;3637;51.494;11.958;2023-03-26T14:24:52;2.07;;;1.07;;
7191;SDS011;3637;51.494;11.958;2023-03-26T14:28:14;1.30;;;1.20;;
7191;SDS011;3637;51.494;11.958;2023-03-26T14:31:32;1.87;;;1.30;;
7191;SDS011;3637;51.494;11.958;2023-03-26T14:34:41;2.13;;;1.40;;
7191;SDS011;3637;51.494;11.958;2023-03-26T14:38:04;5.23;;;1.40;;
7191;SDS011;3637;51.494;11.958;2023-03-26T14:41:19;2.57;;;1.30;;
7191;SDS011;3637;51.494;11.958;2023-03-26T14:44:36;3.13;;;1.57;;
7191;SDS011;3637;51.494;11.958;2023-03-26T14:48:04;2.57;;;1.43;;
7191;SDS011;3637;51.494;11.958;2023-03-26T14:51:48;2.03;;;1.30;;
7191;SDS011;3637;51.494;11.958;2023-03-26T14:55:00;3.70;;;1.40;;
7191;SDS011;3637;51.494;11.958;2023-03-26T14:58:14;2.73;;;1.43;;
7191;SDS011;3637;51.494;11.958;2023-03-26T15:01:43;1.50;;;1.40;;
7191;SDS011;3637;51.494;11.958;2023-03-26T15:12:17;3.37;;;1.37;;
7191;SDS011;3637;51.494;11.958;2023-03-26T15:15:48;1.53;;;1.30;;
7191;SDS011;3637;51.494;11.958;2023-03-26T15:23:18;2.63;;;1.43;;
7191;SDS011;3637;51.494;11.958;2023-03-26T15:27:06;1.30;;;1.20;;
7191;SDS011;3637;51.494;11.958;2023-03-26T15:30:32;1.57;;;1.30;;
7191;SDS011;3637;51.494;11.958;2023-03-26T15:34:05;1.40;;;1.30;;
7191;SDS011;3637;51.494;11.958;2023-03-26T15:37:52;2.23;;;2.03;;
7191;SDS011;3637;51.494;11.958;2023-03-26T15:41:20;1.37;;;1.27;;
7191;SDS011;3637;51.494;11.958;2023-03-26T15:44:32;1.63;;;1.27;;
7191;SDS011;3637;51.494;11.958;2023-03-26T15:47:55;1.53;;;1.40;;
7191;SDS011;3637;51.494;11.958;2023-03-26T15:54:34;3.07;;;1.53;;
7191;SDS011;3637;51.494;11.958;2023-03-26T15:57:47;1.90;;;1.40;;
7191;SDS011;3637;51.494;11.958;2023-03-26T16:00:58;2.47;;;1.60;;
7191;SDS011;3637;51.494;11.958;2023-03-26T16:04:21;2.80;;;1.57;;
7191;SDS011;3637;51.494;11.958;2023-03-26T16:07:43;3.43;;;1.40;;
7191;SDS011;3637;51.494;11.958;2023-03-26T16:10:53;1.63;;;1.40;;
7191;SDS011;3637;51.494;11.958;2023-03-26T16:14:08;2.13;;;1.60;;
7191;SDS011;3637;51.494;11.958;2023-03-26T16:17:16;3.73;;;2.47;;
7191;SDS011;3637;51.494;11.958;2023-03-26T16:20:22;1.50;;;1.40;;
7191;SDS011;3637;51.494;11.958;2023-03-26T16:23:33;5.33;;;1.70;;
7191;SDS011;3637;51.494;11.958;2023-03-26T16:30:34;4.60;;;2.00;;
7191;SDS011;3637;51.494;11.958;2023-03-26T16:33:36;2.33;;;1.80;;
7191;SDS011;3637;51.494;11.958;2023-03-26T16:36:44;3.93;;;1.80;;
7191;SDS011;3637;51.494;11.958;2023-03-26T16:39:50;3.00;;;2.27;;
7191;SDS011;3637;51.494;11.958;2023-03-26T16:42:53;5.77;;;2.13;;
7191;SDS011;3637;51.494;11.958;2023-03-26T16:46:08;3.97;;;2.73;;
7191;SDS011;3637;51.494;11.958;2023-03-26T16:49:24;3.33;;;2.73;;
7191;SDS011;3637;51.494;11.958;2023-03-26T16:52:39;5.00;;;3.77;;
7191;SDS011;3637;51.494;11.958;2023-03-26T16:55:45;5.83;;;3.10;;
7191;SDS011;3637;51.494;11.958;2023-03-26T16:58:54;2.63;;;2.30;;
7191;SDS011;3637;51.494;11.958;2023-03-26T17:02:04;4.47;;;2.20;;
7191;SDS011;3637;51.494;11.958;2023-03-26T17:05:17;4.10;;;2.50;;
7191;SDS011;3637;51.494;11.958;2023-03-26T17:08:22;3.10;;;2.60;;
7191;SDS011;3637;51.494;11.958;2023-03-26T17:11:34;7.67;;;2.77;;
7191;SDS011;3637;51.494;11.958;2023-03-26T17:14:50;3.20;;;2.43;;
7191;SDS011;3637;51.494;11.958;2023-03-26T17:18:22;3.67;;;1.90;;
7191;SDS011;3637;51.494;11.958;2023-03-26T17:21:33;2.67;;;2.00;;
7191;SDS011;3637;51.494;11.958;2023-03-26T17:24:44;3.53;;;2.10;;
7191;SDS011;3637;51.494;11.958;2023-03-26T17:27:55;1.93;;;1.73;;
7191;SDS011;3637;51.494;11.958;2023-03-26T17:31:13;3.67;;;1.50;;
7191;SDS011;3637;51.494;11.958;2023-03-26T17:34:40;3.37;;;1.90;;
7191;SDS011;3637;51.494;11.958;2023-03-26T17:37:52;2.30;;;1.30;;
7191;SDS011;3637;51.494;11.958;2023-03-26T17:40:55;1.67;;;1.57;;
7191;SDS011;3637;51.494;11.958;2023-03-26T17:44:03;6.40;;;2.47;;
7191;SDS011;3637;51.494;11.958;2023-03-26T17:47:30;12.97;;;4.30;;
7191;SDS011;3637;51.494;11.958;2023-03-26T17:50:39;6.87;;;4.20;;
7191;SDS011;3637;51.494;11.958;2023-03-26T17:53:47;6.10;;;3.57;;
7191;SDS011;3637;51.494;11.958;2023-03-26T17:56:52;3.13;;;2.03;;
7191;SDS011;3637;51.494;11.958;2023-03-26T18:00:00;3.87;;;2.30;;
7191;SDS011;3637;51.494;11.958;2023-03-26T18:03:09;6.17;;;3.97;;
7191;SDS011;3637;51.494;11.958;2023-03-26T18:06:24;3.07;;;2.20;;
7191;SDS011;3637;51.494;11.958;2023-03-26T18:09:45;2.07;;;1.87;;
7191;SDS011;3637;51.494;11.958;2023-03-26T18:13:04;2.00;;;1.83;;
7191;SDS011;3637;51.494;11.958;2023-03-26T18:16:35;2.20;;;2.00;;
7191;SDS011;3637;51.494;11.958;2023-03-26T18:19:46;2.40;;;1.97;;
7191;SDS011;3637;51.494;11.958;2023-03-26T18:22:51;1.70;;;1.40;;
7191;SDS011;3637;51.494;11.958;2023-03-26T18:25:55;1.50;;;1.40;;
7191;SDS011;3637;51.494;11.958;2023-03-26T18:29:10;2.87;;;1.70;;
7191;SDS011;3637;51.494;11.958;2023-03-26T18:32:18;1.60;;;1.50;;
7191;SDS011;3637;51.494;11.958;2023-03-26T18:35:25;2.47;;;1.57;;
7191;SDS011;3637;51.494;11.958;2023-03-26T18:38:36;1.77;;;1.63;;
7191;SDS011;3637;51.494;11.958;2023-03-26T18:41:38;3.53;;;1.50;;
7191;SDS011;3637;51.494;11.958;2023-03-26T18:44:45;1.83;;;1.60;;
7191;SDS011;3637;51.494;11.958;2023-03-26T18:47:49;3.23;;;2.10;;
7191;SDS011;3637;51.494;11.958;2023-03-26T18:50:55;2.63;;;2.10;;
7191;SDS011;3637;51.494;11.958;2023-03-26T18:54:03;3.50;;;1.90;;
7191;SDS011;3637;51.494;11.958;2023-03-26T18:57:07;1.60;;;1.50;;
7191;SDS011;3637;51.494;11.958;2023-03-26T19:00:14;1.83;;;1.70;;
7191;SDS011;3637;51.494;11.958;2023-03-26T19:03:20;2.37;;;1.97;;
7191;SDS011;3637;51.494;11.958;2023-03-26T19:06:23;2.20;;;1.77;;
7191;SDS011;3637;51.494;11.958;2023-03-26T19:09:28;2.07;;;1.80;;
7191;SDS011;3637;51.494;11.958;2023-03-26T19:12:31;3.70;;;1.70;;
7191;SDS011;3637;51.494;11.958;2023-03-26T19:15:34;3.20;;;2.00;;
7191;SDS011;3637;51.494;11.958;2023-03-26T19:18:36;2.37;;;2.00;;
7191;SDS011;3637;51.494;11.958;2023-03-26T19:21:41;2.23;;;1.90;;
7191;SDS011;3637;51.494;11.958;2023-03-26T19:24:46;3.00;;;2.20;;
7191;SDS011;3637;51.494;11.958;2023-03-26T19:27:50;2.60;;;2.10;;
7191;SDS011;3637;51.494;11.958;2023-03-26T19:30:53;3.73;;;2.10;;
7191;SDS011;3637;51.494;11.958;2023-03-26T19:33:57;2.70;;;2.27;;
7191;SDS011;3637;51.494;11.958;2023-03-26T19:37:01;5.27;;;2.77;;
7191;SDS011;3637;51.494;11.958;2023-03-26T19:40:19;2.87;;;2.53;;
7191;SDS011;3637;51.494;11.958;2023-03-26T19:43:28;2.30;;;2.10;;
7191;SDS011;3637;51.494;11.958;2023-03-26T19:46:31;2.30;;;2.10;;
7191;SDS011;3637;51.494;11.958;2023-03-26T19:49:39;4.70;;;2.50;;
7191;SDS011;3637;51.494;11.958;2023-03-26T19:52:55;3.77;;;2.67;;
7191;SDS011;3637;51.494;11.958;2023-03-26T19:56:19;4.17;;;3.10;;
7191;SDS011;3637;51.494;11.958;2023-03-26T19:59:21;5.53;;;3.00;;
7191;SDS011;3637;51.494;11.958;2023-03-26T20:02:24;3.83;;;2.90;;
7191;SDS011;3637;51.494;11.958;2023-03-26T20:05:28;3.47;;;2.83;;